Newmilns, United Kingdom
Current Conditions -  °F | °C
As of 1:50 AM on Sunday 21 Dec 2014 (Local Time) from EGPK Reporting Station
Scattered Clouds Scattered Clouds  
Wind Chill: 40°   Ceiling: Unl
Heat Index: 46°   Visibility: 6mi
Dew Point: 41°   Wind: 16mph
Humidity: 81%   Direction: 230°SW
Pressure: 30.15"   Gusts: NA
Location:  55.61°N, 4.32°W
Report Text: EGPK 210150Z 23014KT 9999 SCT022 SCT025 08/05 Q1021
Loading
Personal Weather Stations






























Interactive Weather Map New forecast layout! Learn more

10-Day Weather Forecast

Advertisements
Track Severe Weather on mobile